Time;durP1;ratioP1;P1;durP2;ratioP2;P2;SDS_P1;SDS_P2;PMS_P1;PMS_P2;Temp;Humidity;BMP_temperature;BMP_pressure;BME280_temperature;BME280_humidity;BME280_pressure;Samples;Min_cycle;Max_cycle;Signal;HPM_P1;HPM_P2
2021/04/26 00:01:35;;;;;;;1.70;1.60;;;;;;;4.69;49.74;101563.94;5068361;28;20032;-65
2021/04/26 00:04:01;;;;;;;2.10;1.90;;;;;;;4.24;50.38;101560.84;5073358;28;20035;-64
2021/04/26 00:06:27;;;;;;;2.25;2.10;;;;;;;4.98;49.42;101556.06;5056525;28;20024;-65
2021/04/26 00:08:52;;;;;;;2.45;1.90;;;;;;;4.25;50.76;101551.31;5073043;28;20467;-65
2021/04/26 00:11:18;;;;;;;2.50;2.30;;;;;;;3.43;51.97;101549.50;5073071;28;20021;-65
2021/04/26 00:13:44;;;;;;;2.35;2.15;;;;;;;4.05;51.24;101553.28;5072740;28;20032;-65
2021/04/26 00:16:09;;;;;;;1.90;1.77;;;;;;;4.67;49.93;101547.31;5071376;28;20036;-65
2021/04/26 00:18:34;;;;;;;4.05;2.00;;;;;;;3.87;51.96;101550.97;5073172;28;20498;-65
2021/04/26 00:20:59;;;;;;;1.80;1.70;;;;;;;3.58;52.94;101555.28;5062723;28;20024;-65
2021/04/26 00:23:25;;;;;;;2.08;1.98;;;;;;;3.18;54.78;101556.50;5072706;28;20013;-64
2021/04/26 00:25:50;;;;;;;1.88;1.77;;;;;;;3.00;55.54;101562.78;5072411;28;20035;-64
2021/04/26 00:28:15;;;;;;;2.17;2.00;;;;;;;2.26;56.28;101553.06;5055387;28;20119;-64
2021/04/26 00:30:41;;;;;;;2.10;1.90;;;;;;;2.35;56.83;101561.25;5072761;28;20024;-65
2021/04/26 00:33:06;;;;;;;1.80;1.70;;;;;;;3.76;52.84;101551.50;5061432;28;20028;-65
2021/04/26 00:35:31;;;;;;;2.00;1.80;;;;;;;4.07;51.40;101547.28;5062062;28;20031;-65
2021/04/26 00:37:57;;;;;;;1.58;1.48;;;;;;;4.09;51.35;101548.22;5071520;28;20066;-65
2021/04/26 00:40:23;;;;;;;2.72;1.90;;;;;;;4.52;51.06;101549.47;5055678;28;20029;-64
2021/04/26 00:42:49;;;;;;;2.05;1.80;;;;;;;4.20;51.86;101548.53;5067839;28;20029;-65
2021/04/26 00:45:17;;;;;;;2.88;1.75;;;;;;;4.49;50.11;101550.28;5043796;28;20031;-64
2021/04/26 00:47:44;;;;;;;6.05;1.92;;;;;;;4.27;49.96;101553.97;5056017;28;20027;-65
2021/04/26 00:50:16;;;;;;;1.70;1.60;;;;;;;3.39;52.62;101564.19;5054771;28;20031;-65
2021/04/26 00:52:42;;;;;;;2.42;1.77;;;;;;;3.26;53.52;101565.47;5054810;28;20356;-65
2021/04/26 00:55:08;;;;;;;1.95;1.85;;;;;;;3.97;51.43;101572.19;5060273;28;20107;-64
2021/04/26 00:57:33;;;;;;;2.78;1.95;;;;;;;4.60;48.75;101563.66;5054527;28;20032;-64
2021/04/26 00:59:58;;;;;;;3.28;1.88;;;;;;;4.37;49.09;101556.03;5035839;28;20108;-65
2021/04/26 01:02:24;;;;;;;1.95;1.85;;;;;;;4.66;49.25;101555.13;5066519;28;20020;-65
2021/04/26 01:04:54;;;;;;;1.60;1.50;;;;;;;4.63;49.26;101563.75;5070912;28;20051;-65
2021/04/26 01:07:19;;;;;;;1.98;1.73;;;;;;;4.82;48.05;101561.69;5070823;28;20058;-64
2021/04/26 01:09:44;;;;;;;5.47;1.77;;;;;;;4.77;47.33;101555.44;5056161;28;20456;-65
2021/04/26 01:12:18;;;;;;;2.03;1.92;;;;;;;4.32;48.14;101557.59;5072066;28;20464;-65
2021/04/26 01:15:10;;;;;;;2.08;1.85;;;;;;;4.11;48.81;101566.53;5053474;28;20479;-65
2021/04/26 01:17:39;;;;;;;2.03;1.92;;;;;;;4.42;48.54;101557.06;5054201;28;20028;-64
2021/04/26 01:20:23;;;;;;;1.83;1.52;;;;;;;4.48;48.18;101564.19;5066367;28;20028;-64
2021/04/26 01:23:36;;;;;;;1.83;1.73;;;;;;;4.42;47.72;101564.00;5072138;28;20392;-65
2021/04/26 01:26:04;;;;;;;3.08;1.75;;;;;;;4.04;48.53;101555.00;5066551;28;20120;-64
2021/04/26 01:28:51;;;;;;;9.00;2.30;;;;;;;3.71;51.48;101569.59;5070903;28;20032;-65
2021/04/26 01:31:20;;;;;;;1.95;1.60;;;;;;;4.08;48.98;101559.50;5056885;28;20020;-65
2021/04/26 01:33:49;;;;;;;2.50;1.42;;;;;;;3.68;51.02;101559.09;5068726;28;20025;-64
2021/04/26 01:36:17;;;;;;;2.20;2.10;;;;;;;4.13;48.23;101548.31;5070329;28;20422;-64
2021/04/26 01:38:44;;;;;;;3.70;2.05;;;;;;;4.18;49.48;101555.47;5054160;28;20035;-65
2021/04/26 01:41:10;;;;;;;1.60;1.45;;;;;;;4.40;48.37;101547.41;5066235;28;20032;-65
2021/04/26 01:43:36;;;;;;;6.25;1.90;;;;;;;4.88;47.36;101544.44;5071407;28;20039;-64
2021/04/26 01:46:03;;;;;;;1.70;1.60;;;;;;;3.20;50.63;101557.41;5058591;28;20028;-65
2021/04/26 01:48:31;;;;;;;2.17;2.00;;;;;;;2.27;54.19;101552.28;5057216;28;20059;-65
2021/04/26 01:51:05;;;;;;;1.92;1.83;;;;;;;2.12;55.57;101543.03;5064388;28;20034;-65
2021/04/26 01:53:31;;;;;;;2.15;1.85;;;;;;;3.25;52.37;101552.38;5051834;28;20025;-65
2021/04/26 01:55:58;;;;;;;1.65;1.55;;;;;;;2.92;52.96;101554.72;5069233;28;20029;-65
2021/04/26 01:58:25;;;;;;;3.38;1.60;;;;;;;3.32;51.20;101555.25;5070141;28;20032;-65
2021/04/26 02:00:51;;;;;;;2.05;1.85;;;;;;;2.43;54.36;101554.63;5070831;28;20031;-65
2021/04/26 02:03:20;;;;;;;1.60;1.50;;;;;;;2.46;53.49;101548.66;5053768;28;20403;-65
2021/04/26 02:05:46;;;;;;;1.83;1.73;;;;;;;2.14;55.34;101551.75;5068840;28;20024;-65
2021/04/26 02:08:13;;;;;;;1.85;1.75;;;;;;;3.27;51.53;101546.38;5068675;28;20483;-65
2021/04/26 02:10:38;;;;;;;1.75;1.60;;;;;;;3.60;50.44;101547.47;5064933;28;20032;-65
2021/04/26 02:13:05;;;;;;;3.03;1.65;;;;;;;3.63;50.67;101549.31;5053701;28;20450;-65
2021/04/26 02:15:30;;;;;;;2.15;1.95;;;;;;;2.82;52.34;101545.69;5070902;28;20388;-65
2021/04/26 02:17:56;;;;;;;3.45;2.00;;;;;;;3.43;50.96;101541.69;5053229;28;20029;-65
2021/04/26 02:20:21;;;;;;;1.67;1.58;;;;;;;3.32;50.76;101538.72;5056947;28;20475;-65
2021/04/26 02:22:49;;;;;;;2.25;2.05;;;;;;;2.64;52.61;101527.63;5064686;28;20028;-65
2021/04/26 02:25:15;;;;;;;3.50;2.15;;;;;;;2.01;55.57;101523.50;5071288;28;20048;-64
2021/04/26 02:27:40;;;;;;;2.40;1.83;;;;;;;2.67;52.87;101527.75;5070650;28;20017;-65
2021/04/26 02:30:08;;;;;;;3.40;2.13;;;;;;;2.66;53.30;101525.97;5074929;28;20043;-65
2021/04/26 02:32:40;;;;;;;3.55;2.85;;;;;;;3.50;50.42;101527.16;5063142;28;20134;-65
2021/04/26 02:35:09;;;;;;;5.10;2.25;;;;;;;3.21;50.18;101523.56;5075297;28;20508;-65
2021/04/26 02:37:46;;;;;;;5.25;2.08;;;;;;;3.46;50.63;101516.63;5073749;28;20454;-65
2021/04/26 02:40:13;;;;;;;1.85;1.75;;;;;;;3.23;51.37;101525.38;5074996;28;20514;-65
2021/04/26 02:42:40;;;;;;;4.20;2.15;;;;;;;2.85;51.23;101518.84;5072215;28;20081;-65
2021/04/26 02:45:08;;;;;;;2.40;2.20;;;;;;;3.14;50.51;101513.75;5074932;28;20029;-65
2021/04/26 02:47:33;;;;;;;4.05;2.67;;;;;;;3.93;48.84;101510.28;5037045;28;20504;-65
2021/04/26 02:50:02;;;;;;;6.72;2.35;;;;;;;3.89;48.72;101508.41;5052060;28;20036;-65
2021/04/26 02:52:27;;;;;;;3.53;2.60;;;;;;;3.41;50.61;101512.97;5073488;28;20027;-65
2021/04/26 02:54:53;;;;;;;2.95;2.50;;;;;;;3.82;48.87;101503.84;5074507;28;20033;-65
2021/04/26 02:57:19;;;;;;;13.25;2.67;;;;;;;3.69;48.36;101503.44;5075331;28;20471;-65
2021/04/26 02:59:45;;;;;;;6.90;2.75;;;;;;;3.12;50.27;101502.41;5073746;28;20033;-65
2021/04/26 03:02:11;;;;;;;2.90;2.40;;;;;;;1.80;54.64;101490.56;5072707;28;20387;-65
2021/04/26 03:04:37;;;;;;;2.58;2.28;;;;;;;1.64;54.17;101502.09;5072836;28;20025;-64
2021/04/26 03:07:05;;;;;;;3.35;3.00;;;;;;;1.55;55.52;101497.38;5074665;28;20494;-65
2021/04/26 03:09:30;;;;;;;3.13;2.85;;;;;;;2.27;54.16;101495.88;5071758;28;20387;-65
2021/04/26 03:11:56;;;;;;;4.15;2.15;;;;;;;2.86;51.73;101497.16;5060038;28;20021;-65
2021/04/26 03:14:24;;;;;;;2.67;2.35;;;;;;;2.29;53.27;101482.91;5071565;28;20025;-65
2021/04/26 03:16:49;;;;;;;4.72;2.30;;;;;;;2.27;54.02;101485.44;5073228;28;20059;-65
2021/04/26 03:19:16;;;;;;;2.28;2.08;;;;;;;1.76;56.15;101489.56;5073200;28;20048;-64
2021/04/26 03:21:43;;;;;;;4.90;2.17;;;;;;;2.52;53.16;101488.09;5061419;28;20440;-65
2021/04/26 03:24:08;;;;;;;2.58;2.25;;;;;;;3.46;50.43;101495.75;5074148;28;20050;-65
2021/04/26 03:26:34;;;;;;;3.33;2.72;;;;;;;3.03;51.80;101494.28;5077159;28;20056;-65
2021/04/26 03:29:00;;;;;;;4.78;2.67;;;;;;;2.82;52.31;101490.06;5058815;28;20028;-65
2021/04/26 03:31:27;;;;;;;2.65;2.25;;;;;;;2.93;50.75;101491.34;5056107;28;20091;-65
2021/04/26 03:33:53;;;;;;;3.28;2.45;;;;;;;2.27;53.53;101484.59;5061783;28;20480;-65
2021/04/26 03:36:20;;;;;;;4.50;2.60;;;;;;;1.57;55.74;101480.13;5072808;28;20082;-65
2021/04/26 03:38:46;;;;;;;2.67;2.47;;;;;;;1.19;57.53;101469.91;5064264;28;20021;-65
2021/04/26 03:41:12;;;;;;;2.97;2.67;;;;;;;2.09;55.51;101466.53;5064237;28;20035;-65
2021/04/26 03:43:44;;;;;;;2.60;2.40;;;;;;;2.84;52.40;101464.97;5073086;28;20040;-65
2021/04/26 03:46:09;;;;;;;2.78;1.90;;;;;;;2.91;51.65;101464.34;5056260;28;20499;-65
2021/04/26 03:48:34;;;;;;;2.83;2.63;;;;;;;3.30;50.70;101468.25;5057167;28;20056;-65
2021/04/26 03:51:00;;;;;;;3.72;2.40;;;;;;;3.58;49.38;101463.06;5056900;28;20031;-65
2021/04/26 03:53:25;;;;;;;2.40;2.17;;;;;;;3.19;51.02;101462.69;5062269;28;20051;-65
2021/04/26 03:55:50;;;;;;;2.67;2.47;;;;;;;2.51;52.76;101457.69;5073822;28;20024;-65
2021/04/26 03:58:16;;;;;;;3.30;2.50;;;;;;;2.96;51.69;101461.88;5073763;28;20033;-65
2021/04/26 04:00:41;;;;;;;5.85;2.53;;;;;;;2.33;52.36;101466.56;5058692;28;20107;-64
2021/04/26 04:03:10;;;;;;;2.63;2.22;;;;;;;1.64;54.71;101455.28;5055717;28;20430;-65
2021/04/26 04:05:39;;;;;;;17.02;2.90;;;;;;;1.24;57.73;101459.72;5072905;28;20384;-65
2021/04/26 04:08:05;;;;;;;7.53;2.30;;;;;;;1.70;55.17;101459.84;5056144;28;20028;-65
2021/04/26 04:10:31;;;;;;;3.80;2.78;;;;;;;1.83;55.24;101456.00;5055895;28;20051;-64
2021/04/26 04:12:56;;;;;;;6.30;2.50;;;;;;;2.04;53.56;101455.97;5072488;28;20476;-64
2021/04/26 04:15:21;;;;;;;4.70;2.58;;;;;;;1.29;55.76;101455.59;5072479;28;20024;-65
2021/04/26 04:17:47;;;;;;;2.90;2.10;;;;;;;1.24;56.68;101462.31;5072831;28;20051;-65
2021/04/26 04:20:13;;;;;;;9.88;2.50;;;;;;;1.26;55.91;101458.06;5073176;28;20499;-65
2021/04/26 04:22:38;;;;;;;2.72;2.40;;;;;;;2.06;54.09;101459.50;5072212;28;20032;-65
2021/04/26 04:25:04;;;;;;;4.03;2.60;;;;;;;2.58;52.89;101454.47;5073340;28;20035;-65
2021/04/26 04:27:30;;;;;;;4.50;2.75;;;;;;;1.88;54.01;101464.88;5071806;28;20020;-65
2021/04/26 04:29:55;;;;;;;5.50;2.70;;;;;;;1.86;54.75;101467.41;5073000;28;20384;-65
2021/04/26 04:32:20;;;;;;;5.57;3.88;;;;;;;2.58;53.43;101470.09;5072756;28;20027;-65
2021/04/26 04:34:46;;;;;;;6.65;2.90;;;;;;;2.20;53.91;101457.41;5073007;28;20020;-65
2021/04/26 04:37:11;;;;;;;5.70;3.50;;;;;;;1.65;55.62;101442.34;5072529;28;20024;-65
2021/04/26 04:39:36;;;;;;;5.43;3.55;;;;;;;2.39;52.98;101465.91;5072696;28;20089;-65
2021/04/26 04:42:01;;;;;;;6.13;3.70;;;;;;;2.16;53.57;101458.13;5072707;28;20024;-65
2021/04/26 04:44:27;;;;;;;9.20;2.72;;;;;;;2.38;54.10;101462.44;5072541;28;20033;-65
2021/04/26 04:46:52;;;;;;;7.95;2.33;;;;;;;2.57;52.90;101463.13;5071998;28;20032;-65
2021/04/26 04:49:17;;;;;;;4.72;2.67;;;;;;;3.13;51.97;101454.66;5072922;28;20025;-65
2021/04/26 04:51:46;;;;;;;2.50;2.30;;;;;;;3.15;51.53;101457.31;5072295;28;20139;-65
2021/04/26 04:54:11;;;;;;;6.68;2.90;;;;;;;3.05;52.12;101456.09;5072658;28;20028;-65
2021/04/26 04:56:38;;;;;;;3.70;3.03;;;;;;;2.25;54.15;101460.19;5054276;28;20495;-65
2021/04/26 04:59:04;;;;;;;4.47;3.20;;;;;;;2.13;55.50;101464.09;5072273;28;20024;-64
2021/04/26 05:01:29;;;;;;;4.07;3.67;;;;;;;3.00;52.42;101462.88;5064254;28;20020;-65
2021/04/26 05:03:55;;;;;;;8.90;5.65;;;;;;;2.63;52.82;101458.13;5072848;28;20013;-65
2021/04/26 05:06:20;;;;;;;5.60;5.10;;;;;;;1.98;54.33;101455.72;5071513;28;20028;-65
2021/04/26 05:08:45;;;;;;;5.97;4.40;;;;;;;2.34;54.42;101457.97;5071580;28;20476;-65
2021/04/26 05:11:10;;;;;;;5.28;4.35;;;;;;;2.38;52.79;101456.34;5072262;28;20032;-65
2021/04/26 05:13:36;;;;;;;4.97;3.88;;;;;;;2.14;53.85;101463.28;5072029;28;20059;-65
2021/04/26 05:16:01;;;;;;;4.40;3.83;;;;;;;2.57;53.73;101468.34;5071196;28;20020;-65
2021/04/26 05:18:26;;;;;;;5.72;3.75;;;;;;;2.92;52.11;101466.13;5070733;28;20021;-65
2021/04/26 05:20:52;;;;;;;4.43;3.80;;;;;;;2.39;52.92;101453.81;5070933;28;20024;-65
2021/04/26 05:23:17;;;;;;;6.75;4.25;;;;;;;2.33;53.90;101458.75;5053182;28;20087;-65
2021/04/26 05:25:42;;;;;;;5.30;4.35;;;;;;;2.60;54.52;101451.94;5071938;28;20025;-65
2021/04/26 05:28:08;;;;;;;6.32;4.60;;;;;;;3.03;53.59;101443.00;5071763;28;20102;-65
2021/04/26 05:30:33;;;;;;;7.47;5.10;;;;;;;2.54;56.05;101452.59;5064269;28;20055;-65
2021/04/26 05:32:59;;;;;;;7.18;4.50;;;;;;;3.63;52.71;101445.84;5070527;28;20496;-65
2021/04/26 05:35:25;;;;;;;7.57;4.85;;;;;;;3.08;54.37;101440.56;5070713;28;20594;-65
2021/04/26 05:37:50;;;;;;;4.35;2.83;;;;;;;3.13;55.85;101443.34;5071856;28;20040;-65
2021/04/26 05:40:16;;;;;;;5.53;3.80;;;;;;;3.04;55.17;101433.50;5071911;28;20059;-65
2021/04/26 05:42:41;;;;;;;13.32;4.55;;;;;;;2.64;57.01;101443.41;5054178;28;20400;-65
2021/04/26 05:45:07;;;;;;;8.82;6.10;;;;;;;2.86;55.33;101447.63;5054028;28;20032;-65
2021/04/26 05:47:33;;;;;;;7.93;3.85;;;;;;;6.92;48.09;101442.69;5070484;28;20036;-65
2021/04/26 05:49:58;;;;;;;7.65;3.38;;;;;;;11.45;38.18;101420.41;5071569;28;20024;-65
2021/04/26 05:52:24;;;;;;;6.32;3.08;;;;;;;17.30;27.83;101413.91;5070719;28;20498;-66
2021/04/26 05:54:49;;;;;;;4.03;2.70;;;;;;;16.86;27.88;101423.81;5070621;28;20056;-66
2021/04/26 05:57:14;;;;;;;4.68;2.15;;;;;;;17.80;26.63;101420.59;5071419;28;20024;-66
2021/04/26 05:59:40;;;;;;;3.45;3.10;;;;;;;18.51;25.35;101430.16;5067957;28;20016;-67
2021/04/26 06:02:05;;;;;;;3.85;2.33;;;;;;;16.07;28.55;101426.44;5053758;28;20025;-66
2021/04/26 06:04:31;;;;;;;3.00;2.20;;;;;;;17.17;28.12;101431.09;5071712;28;20033;-66
2021/04/26 06:06:56;;;;;;;2.78;2.58;;;;;;;20.05;24.12;101421.56;5053376;28;20036;-66
2021/04/26 06:09:22;;;;;;;3.78;2.60;;;;;;;18.03;26.42;101423.53;5071464;28;20107;-67
2021/04/26 06:11:47;;;;;;;3.22;2.92;;;;;;;17.76;27.43;101416.25;5071612;28;20025;-66
2021/04/26 06:14:12;;;;;;;3.28;3.00;;;;;;;17.50;27.63;101422.31;5070473;28;20021;-66
2021/04/26 06:16:37;;;;;;;3.80;2.30;;;;;;;19.57;25.76;101413.41;5071424;28;20024;-67
2021/04/26 06:19:04;;;;;;;3.15;2.58;;;;;;;17.59;28.45;101421.16;5071568;28;20079;-66
2021/04/26 06:21:30;;;;;;;2.78;2.58;;;;;;;19.73;25.44;101412.84;5033718;28;20445;-67
2021/04/26 06:23:55;;;;;;;4.32;2.65;;;;;;;19.94;25.77;101415.69;5067104;28;20059;-67
2021/04/26 06:26:20;;;;;;;5.22;2.78;;;;;;;20.49;24.80;101410.06;5071234;28;20055;-67
2021/04/26 06:28:46;;;;;;;3.05;2.78;;;;;;;21.18;23.95;101422.56;5071550;28;20533;-67
2021/04/26 06:31:12;;;;;;;2.60;2.40;;;;;;;20.04;24.88;101417.09;5067358;28;20033;-67
2021/04/26 06:33:37;;;;;;;4.40;3.10;;;;;;;14.10;32.33;101426.75;5070230;28;20493;-67
2021/04/26 06:36:03;;;;;;;2.50;2.30;;;;;;;13.54;34.49;101430.88;5071304;28;20036;-67
2021/04/26 06:38:28;;;;;;;3.45;2.30;;;;;;;13.76;34.62;101427.13;5071538;28;20089;-67
2021/04/26 06:40:54;;;;;;;5.75;2.80;;;;;;;19.15;27.19;101421.97;5071065;28;20032;-67
2021/04/26 06:43:19;;;;;;;5.07;2.35;;;;;;;20.89;24.70;101418.34;5071269;28;20086;-67
2021/04/26 06:45:44;;;;;;;4.70;3.28;;;;;;;21.71;23.30;101417.63;5071107;28;20043;-67
2021/04/26 06:48:13;;;;;;;10.65;6.80;;;;;;;20.12;24.60;101411.47;5070222;28;20032;-67
2021/04/26 06:50:38;;;;;;;5.03;3.65;;;;;;;21.05;23.59;101417.72;5071256;28;20403;-67
2021/04/26 06:53:04;;;;;;;2.53;2.13;;;;;;;20.86;24.03;101418.44;5071216;28;20016;-67
2021/04/26 06:55:31;;;;;;;2.53;2.33;;;;;;;23.16;21.19;101411.75;5069767;28;20453;-67
2021/04/26 06:57:56;;;;;;;4.40;2.08;;;;;;;22.43;21.54;101417.94;5069994;28;20099;-67
2021/04/26 07:00:22;;;;;;;3.15;2.00;;;;;;;22.80;21.04;101416.22;5071067;28;20111;-67
2021/04/26 07:02:49;;;;;;;2.47;1.70;;;;;;;23.52;19.89;101406.41;5053231;28;20384;-67
2021/04/26 07:05:15;;;;;;;3.08;1.80;;;;;;;24.15;19.53;101404.88;5052944;28;20056;-68
2021/04/26 07:07:40;;;;;;;3.85;2.03;;;;;;;23.38;19.75;101404.44;5052941;28;20514;-68
2021/04/26 07:10:06;;;;;;;2.63;1.50;;;;;;;24.16;19.47;101409.31;5057085;28;20540;-67
2021/04/26 07:12:32;;;;;;;4.25;1.70;;;;;;;29.29;15.14;101407.59;5072195;28;20112;-68
2021/04/26 07:14:57;;;;;;;3.80;1.95;;;;;;;27.00;16.44;101403.06;5073508;28;20123;-68
2021/04/26 07:17:23;;;;;;;5.10;1.80;;;;;;;26.24;17.55;101402.56;5056622;28;20445;-68
2021/04/26 07:19:50;;;;;;;2.33;1.10;;;;;;;29.37;14.00;101400.69;5074196;28;20032;-68
2021/04/26 07:22:15;;;;;;;2.63;1.08;;;;;;;25.65;16.78;101415.22;5057130;28;20086;-67
2021/04/26 07:24:40;;;;;;;2.75;1.50;;;;;;;30.76;13.56;101412.31;5074495;28;20479;-68
2021/04/26 07:27:06;;;;;;;3.13;1.45;;;;;;;28.18;14.80;101415.69;5056241;28;20031;-68
2021/04/26 07:29:31;;;;;;;5.28;1.20;;;;;;;27.14;14.58;101412.94;5056303;28;20158;-67
2021/04/26 07:31:57;;;;;;;3.60;1.25;;;;;;;26.97;14.67;101414.09;5074320;28;20031;-68
2021/04/26 07:34:22;;;;;;;2.33;1.40;;;;;;;27.24;14.91;101415.03;5072695;28;20033;-68
2021/04/26 07:36:47;;;;;;;2.92;1.20;;;;;;;31.04;12.86;101417.28;5074033;28;20495;-68
2021/04/26 07:39:14;;;;;;;2.92;1.50;;;;;;;32.76;12.04;101412.22;5072989;28;20400;-68
2021/04/26 07:41:40;;;;;;;5.15;1.58;;;;;;;30.47;13.43;101421.00;5073788;28;20103;-68
2021/04/26 07:44:05;;;;;;;3.60;1.48;;;;;;;29.01;13.80;101414.28;5060847;28;20114;-68
2021/04/26 07:46:30;;;;;;;3.05;1.48;;;;;;;29.09;13.84;101409.13;5055984;28;20390;-68
2021/04/26 07:48:56;;;;;;;3.28;1.20;;;;;;;28.37;14.53;101417.09;5073984;28;20068;-68
2021/04/26 07:51:21;;;;;;;2.80;1.25;;;;;;;28.11;14.65;101413.56;5069434;28;20031;-68
2021/04/26 07:53:47;;;;;;;3.78;1.27;;;;;;;29.13;14.20;101412.44;5072549;28;20439;-68
2021/04/26 07:56:12;;;;;;;2.15;0.93;;;;;;;28.54;14.37;101412.28;5073616;28;20442;-68
2021/04/26 07:58:37;;;;;;;2.15;1.40;;;;;;;26.99;15.37;101411.28;5074047;28;20027;-68
2021/04/26 08:01:03;;;;;;;1.20;1.10;;;;;;;29.13;13.33;101410.63;5073628;28;20028;-68
2021/04/26 08:03:28;;;;;;;1.50;1.40;;;;;;;29.72;13.01;101407.94;5073816;28;20020;-68
2021/04/26 08:05:53;;;;;;;3.38;1.67;;;;;;;30.29;12.47;101399.78;5073539;28;20020;-69
2021/04/26 08:08:19;;;;;;;1.85;1.60;;;;;;;30.06;12.81;101405.22;5073669;28;20036;-68
2021/04/26 08:10:44;;;;;;;2.83;1.95;;;;;;;30.60;12.56;101413.56;5073329;28;20031;-69
2021/04/26 08:13:10;;;;;;;2.03;1.67;;;;;;;28.08;13.78;101405.66;5073378;28;20024;-69
2021/04/26 08:15:35;;;;;;;2.10;1.40;;;;;;;28.15;13.99;101398.81;5055437;28;20082;-69
2021/04/26 08:18:01;;;;;;;2.70;1.35;;;;;;;28.98;13.48;101409.06;5055506;28;20021;-69
2021/04/26 08:20:26;;;;;;;2.78;1.20;;;;;;;30.25;12.17;101403.75;5059218;28;20044;-69
2021/04/26 08:22:52;;;;;;;2.03;1.30;;;;;;;29.92;12.55;101410.91;5072990;28;20104;-69
2021/04/26 08:25:17;;;;;;;1.42;1.33;;;;;;;28.79;13.76;101411.31;5072047;28;20023;-69
2021/04/26 08:27:42;;;;;;;1.50;1.10;;;;;;;34.24;10.41;101400.09;5073178;28;20035;-69
2021/04/26 08:30:08;;;;;;;38.00;4.05;;;;;;;30.25;12.01;101406.47;5073084;28;20048;-69
2021/04/26 08:32:34;;;;;;;1.88;1.13;;;;;;;30.92;12.11;101400.13;5055182;28;20024;-69
2021/04/26 08:35:00;;;;;;;2.72;1.30;;;;;;;30.27;12.50;101400.91;5072043;28;20020;-69
2021/04/26 08:37:25;;;;;;;0.98;0.70;;;;;;;30.18;11.72;101391.66;5072860;28;20059;-69
2021/04/26 08:39:50;;;;;;;1.77;1.13;;;;;;;30.32;12.34;101396.81;5072835;28;20158;-69
2021/04/26 08:42:17;;;;;;;4.25;1.00;;;;;;;30.24;12.38;101390.28;5073076;28;20020;-69
2021/04/26 08:44:42;;;;;;;2.10;1.00;;;;;;;29.51;12.81;101397.72;5071497;28;20399;-69
2021/04/26 08:47:08;;;;;;;0.80;0.80;;;;;;;29.58;12.79;101396.28;5071281;28;20070;-69
2021/04/26 08:49:33;;;;;;;1.67;0.80;;;;;;;32.54;10.67;101396.09;5072946;28;20063;-69
2021/04/26 08:51:59;;;;;;;1.15;0.80;;;;;;;31.61;10.88;101387.00;5055473;28;20032;-69
2021/04/26 08:54:24;;;;;;;0.85;0.70;;;;;;;32.67;10.36;101387.63;5054856;28;20119;-69
2021/04/26 08:56:50;;;;;;;1.63;1.20;;;;;;;30.77;11.64;101397.69;5072513;28;20334;-69
2021/04/26 08:59:15;;;;;;;2.15;1.05;;;;;;;31.48;11.77;101384.47;5072702;28;20082;-69
2021/04/26 09:01:45;;;;;;;1.23;1.00;;;;;;;34.82;9.50;101388.91;5067612;28;20491;-69
2021/04/26 09:04:11;;;;;;;2.63;1.05;;;;;;;34.46;10.10;101389.72;5072445;28;20028;-69
2021/04/26 09:06:54;;;;;;;2.95;1.20;;;;;;;34.57;9.35;101385.88;5071032;28;20032;-69
2021/04/26 09:09:38;;;;;;;2.13;1.08;;;;;;;30.49;11.73;101375.50;5068203;28;20032;-69
2021/04/26 09:12:07;;;;;;;1.20;1.10;;;;;;;28.09;13.76;101366.69;5072399;28;20027;-69
2021/04/26 09:14:46;;;;;;;1.95;1.00;;;;;;;28.85;12.81;101368.41;5054534;28;20104;-69
2021/04/26 09:17:31;;;;;;;1.20;0.80;;;;;;;30.06;12.62;101367.16;5072070;28;20029;-69
2021/04/26 09:20:17;;;;;;;2.13;1.63;;;;;;;31.81;11.19;101370.72;5061773;28;20028;-69
2021/04/26 09:22:48;;;;;;;1.08;0.65;;;;;;;27.76;12.48;101369.91;5061248;28;20055;-69
2021/04/26 09:25:27;;;;;;;1.15;0.90;;;;;;;26.35;14.47;101356.81;5070974;28;20024;-69
2021/04/26 09:27:54;;;;;;;1.98;1.10;;;;;;;26.31;14.84;101359.81;5071068;28;20024;-69
2021/04/26 09:30:39;;;;;;;3.78;0.98;;;;;;;27.75;14.04;101357.34;5060090;28;20582;-69
2021/04/26 09:33:21;;;;;;;1.10;0.90;;;;;;;28.21;13.27;101351.41;5071695;28;20063;-69
2021/04/26 09:35:57;;;;;;;2.45;1.15;;;;;;;30.68;12.40;101368.50;5071367;28;20052;-69
2021/04/26 09:38:31;;;;;;;1.00;0.90;;;;;;;27.18;12.81;101345.06;5054144;28;20026;-69
2021/04/26 09:41:11;;;;;;;3.05;2.38;;;;;;;30.08;12.98;101348.84;5069379;28;20029;-69
2021/04/26 09:43:37;;;;;;;1.52;0.95;;;;;;;30.56;11.08;101354.94;5070801;28;20027;-69
2021/04/26 09:46:03;;;;;;;1.85;1.13;;;;;;;33.02;11.49;101345.25;5070782;28;20032;-69
2021/04/26 09:48:29;;;;;;;5.38;2.25;;;;;;;31.03;11.59;101340.16;5070723;28;20479;-69
2021/04/26 09:50:56;;;;;;;1.63;1.10;;;;;;;27.86;12.43;101342.13;5071694;28;20491;-69
2021/04/26 09:53:27;;;;;;;2.75;1.20;;;;;;;25.24;14.50;101333.94;5071401;28;20561;-69
2021/04/26 09:55:55;;;;;;;1.20;1.10;;;;;;;24.85;15.82;101327.25;5070367;28;20396;-69
2021/04/26 09:58:20;;;;;;;1.80;1.65;;;;;;;26.62;13.80;101319.91;5054375;28;20364;-69
2021/04/26 10:00:46;;;;;;;3.63;1.30;;;;;;;27.83;13.72;101316.13;5071589;28;20046;-69
2021/04/26 10:03:16;;;;;;;3.45;1.20;;;;;;;26.05;15.34;101310.97;5061839;28;20292;-69
2021/04/26 10:05:46;;;;;;;3.25;1.33;;;;;;;29.56;12.24;101310.47;5070388;28;20391;-69
2021/04/26 10:08:12;;;;;;;;;;;;;;;28.56;12.93;101312.66;5070909;28;20041;-69
2021/04/26 10:10:41;;;;;;;1.30;1.20;;;;;;;26.25;13.99;101307.84;5053844;28;19924;-69
2021/04/26 10:13:07;;;;;;;2.45;1.27;;;;;;;23.87;15.94;101309.38;5071433;28;20117;-69
2021/04/26 10:15:33;;;;;;;1.17;1.08;;;;;;;22.21;18.50;101300.75;5069723;28;20059;-69
2021/04/26 10:17:59;;;;;;;3.15;1.30;;;;;;;26.72;14.76;101309.34;5061784;28;20494;-69
2021/04/26 10:20:34;;;;;;;5.07;1.00;;;;;;;27.84;14.00;101306.19;5070520;28;20028;-69
2021/04/26 10:23:00;;;;;;;2.10;1.10;;;;;;;27.10;14.43;101296.84;5068176;28;20483;-69
2021/04/26 10:25:39;;;;;;;1.85;1.00;;;;;;;31.33;11.24;101294.03;5053543;28;20039;-70
2021/04/26 10:28:27;;;;;;;1.23;1.02;;;;;;;29.91;12.42;101303.16;5053665;28;20101;-70
2021/04/26 10:30:56;;;;;;;1.00;0.85;;;;;;;30.41;12.57;101293.66;5054725;28;20482;-69
2021/04/26 10:33:22;;;;;;;1.48;1.20;;;;;;;30.83;11.38;101292.84;5070339;28;20031;-69
2021/04/26 10:35:50;;;;;;;3.08;0.98;;;;;;;32.84;11.64;101283.13;5053148;28;20020;-69
2021/04/26 10:38:34;;;;;;;32.45;4.72;;;;;;;21.19;15.83;101287.50;5054274;28;20039;-70
2021/04/26 10:40:59;;;;;;;4.22;1.10;;;;;;;25.40;14.66;101280.84;5067240;28;20031;-69
2021/04/26 10:43:30;;;;;;;1.83;1.33;;;;;;;28.08;13.27;101270.97;5053572;28;20028;-69
2021/04/26 10:46:13;;;;;;;5.43;1.17;;;;;;;28.19;12.70;101267.44;5072096;28;20097;-69
2021/04/26 10:48:39;;;;;;;3.03;1.10;;;;;;;28.80;12.96;101260.19;5065434;28;20020;-70
2021/04/26 10:51:20;;;;;;;4.72;1.08;;;;;;;28.18;13.98;101255.72;5061169;28;20028;-69
2021/04/26 10:53:46;;;;;;;2.20;0.85;;;;;;;28.25;13.27;101256.16;5058520;28;20035;-69
2021/04/26 10:56:23;;;;;;;1.63;1.08;;;;;;;24.68;15.43;101250.91;5056901;28;20023;-69
2021/04/26 10:58:48;;;;;;;1.75;1.15;;;;;;;22.83;16.52;101248.47;5056922;28;20507;-69
2021/04/26 11:01:18;;;;;;;2.42;1.02;;;;;;;21.04;18.12;101255.06;5074813;28;20155;-69
2021/04/26 11:03:45;;;;;;;4.40;1.30;;;;;;;21.24;18.38;101256.00;5057778;28;20028;-69
2021/04/26 11:06:12;;;;;;;3.50;1.52;;;;;;;20.15;18.06;101244.47;5056409;28;20040;-69
2021/04/26 11:08:41;;;;;;;3.83;1.52;;;;;;;20.61;18.51;101247.06;5061485;28;20035;-68
2021/04/26 11:11:30;;;;;;;2.13;1.33;;;;;;;25.07;15.53;101239.66;5071629;28;20063;-69
2021/04/26 11:14:02;;;;;;;3.80;1.52;;;;;;;24.84;16.15;101233.81;5074196;28;20045;-69
2021/04/26 11:16:30;;;;;;;2.75;1.10;;;;;;;27.17;14.07;101227.78;5073177;28;20029;-69
2021/04/26 11:18:58;;;;;;;2.28;1.40;;;;;;;26.39;13.86;101222.28;5056848;28;20032;-69
2021/04/26 11:21:48;;;;;;;1.33;1.20;;;;;;;27.15;13.64;101213.50;5073230;28;20024;-69
2021/04/26 11:24:36;;;;;;;2.83;1.30;;;;;;;26.80;14.22;101216.84;5074697;28;20102;-69
2021/04/26 11:27:07;;;;;;;1.33;1.23;;;;;;;25.60;13.93;101220.19;5074160;28;20483;-69
2021/04/26 11:29:32;;;;;;;3.08;1.63;;;;;;;23.33;16.25;101208.19;5074182;28;20032;-68
2021/04/26 11:32:02;;;;;;;2.50;1.23;;;;;;;21.92;17.01;101207.25;5073923;28;20028;-68